Time;durP1;ratioP1;P1;durP2;ratioP2;P2;SDS_P1;SDS_P2;PMS_P1;PMS_P2;Temp;Humidity;BMP_temperature;BMP_pressure;BME280_temperature;BME280_humidity;BME280_pressure;Samples;Min_cycle;Max_cycle;Signal;HPM_P1;HPM_P2
2023/10/18 00:00:28;;;;;;;47.80;27.60;;;;;;;1.66;77.26;100545.24;1713633;83;25613;-57
2023/10/18 00:02:53;;;;;;;53.35;28.45;;;;;;;1.65;77.31;100548.95;1696011;84;25868;-57
2023/10/18 00:05:25;;;;;;;49.90;27.52;;;;;;;1.62;77.60;100551.59;1696398;84;25479;-58
2023/10/18 00:07:56;;;;;;;50.28;28.32;;;;;;;1.61;77.72;100549.16;1696477;84;25638;-59
2023/10/18 00:10:21;;;;;;;51.13;28.35;;;;;;;1.59;77.82;100552.60;1695953;84;25644;-58
2023/10/18 00:12:49;;;;;;;49.05;28.62;;;;;;;1.58;78.05;100556.30;1696453;84;25597;-58
2023/10/18 00:15:16;;;;;;;45.90;27.25;;;;;;;1.58;78.15;100557.64;1696429;84;27481;-58
2023/10/18 00:17:44;;;;;;;52.48;28.12;;;;;;;1.57;77.85;100550.17;1696351;84;25407;-58
2023/10/18 00:20:16;;;;;;;49.73;29.75;;;;;;;1.55;77.66;100551.45;1696383;84;25399;-58
2023/10/18 00:22:44;;;;;;;53.50;29.50;;;;;;;1.53;78.05;100543.69;1666719;84;25704;-58
2023/10/18 00:25:12;;;;;;;54.48;29.65;;;;;;;1.51;78.16;100536.47;1696620;84;25649;-58
2023/10/18 00:27:41;;;;;;;54.18;31.12;;;;;;;1.49;78.25;100534.58;1696433;84;27385;-58
2023/10/18 00:30:11;;;;;;;49.73;30.25;;;;;;;1.46;78.34;100531.05;1696478;84;25413;-58
2023/10/18 00:32:42;;;;;;;55.08;29.98;;;;;;;1.45;78.38;100525.45;1696484;84;25623;-58
2023/10/18 00:35:20;;;;;;;53.17;28.75;;;;;;;1.45;78.87;100528.92;1696499;84;26252;-58
2023/10/18 00:37:54;;;;;;;54.40;29.57;;;;;;;1.44;78.65;100527.83;1696616;84;25556;-58
2023/10/18 00:43:14;;;;;;;51.50;27.95;;;;;;;1.42;78.84;100528.60;1696371;84;25221;-59
2023/10/18 00:45:40;;;;;;;49.90;28.60;;;;;;;1.40;78.77;100526.17;1693785;84;25414;-58
2023/10/18 00:48:08;;;;;;;53.98;29.20;;;;;;;1.37;78.70;100521.32;1684365;84;25629;-58
2023/10/18 00:50:39;;;;;;;50.90;29.40;;;;;;;1.36;78.78;100518.89;1684334;85;25551;-58
2023/10/18 00:53:06;;;;;;;56.85;30.72;;;;;;;1.35;78.97;100523.96;1684181;85;27474;-57
2023/10/18 00:55:33;;;;;;;53.13;29.75;;;;;;;1.33;79.02;100525.53;1684302;85;25588;-56
2023/10/18 00:58:11;;;;;;;55.23;30.30;;;;;;;1.30;79.09;100515.35;1684207;85;25628;-58
2023/10/18 01:00:40;;;;;;;53.58;30.25;;;;;;;1.27;79.51;100515.30;1682411;85;26256;-56
2023/10/18 01:03:28;;;;;;;50.73;29.50;;;;;;;1.27;79.57;100509.16;1684275;85;25591;-55
2023/10/18 01:06:12;;;;;;;54.30;30.43;;;;;;;1.23;79.61;100507.52;1680846;85;27921;-57
2023/10/18 01:08:37;;;;;;;49.65;28.75;;;;;;;1.23;79.72;100506.71;1682582;85;25619;-57
2023/10/18 01:11:07;;;;;;;57.45;30.95;;;;;;;1.21;80.01;100500.29;1684313;85;25579;-55
2023/10/18 01:13:44;;;;;;;49.73;28.90;;;;;;;1.23;79.99;100506.17;1684197;85;25625;-57
2023/10/18 01:16:20;;;;;;;51.25;29.37;;;;;;;1.22;79.90;100502.42;1684253;85;25413;-57
2023/10/18 01:18:52;;;;;;;53.15;30.25;;;;;;;1.21;80.04;100502.95;1683568;80;28012;-58
2023/10/18 01:21:22;;;;;;;50.92;29.40;;;;;;;1.23;79.74;100505.37;1684125;85;25652;-57
2023/10/18 01:23:55;;;;;;;52.20;28.07;;;;;;;1.22;80.04;100498.42;1684241;85;25629;-56
2023/10/18 01:26:29;;;;;;;51.35;28.67;;;;;;;1.20;79.91;100499.19;1684209;85;26168;-57
2023/10/18 01:29:01;;;;;;;53.28;29.90;;;;;;;1.19;80.21;100494.40;1684259;85;25439;-54
2023/10/18 01:31:27;;;;;;;54.50;29.50;;;;;;;1.18;80.25;100491.44;1684322;85;28049;-56
2023/10/18 01:33:54;;;;;;;56.25;31.07;;;;;;;1.16;80.31;100492.21;1684107;85;25628;-58
2023/10/18 01:36:28;;;;;;;55.78;30.23;;;;;;;1.14;80.17;100488.95;1684170;85;25486;-55
2023/10/18 01:38:52;;;;;;;48.10;29.12;;;;;;;1.15;80.32;100489.78;1683534;85;25648;-54
2023/10/18 01:41:27;;;;;;;53.10;29.92;;;;;;;1.13;80.37;100486.56;1684155;85;25568;-58
2023/10/18 01:44:06;;;;;;;51.05;29.60;;;;;;;1.11;80.49;100480.94;1684197;85;28151;-56
2023/10/18 01:46:37;;;;;;;45.85;27.62;;;;;;;1.11;80.65;100484.93;1684145;83;25768;-55
2023/10/18 01:49:06;;;;;;;53.17;29.12;;;;;;;1.10;80.63;100489.17;1684203;85;25481;-57
2023/10/18 01:51:35;;;;;;;47.83;29.00;;;;;;;1.09;80.45;100485.70;1684351;85;26236;-58
2023/10/18 01:54:05;;;;;;;56.28;30.37;;;;;;;1.10;80.37;100489.97;1684321;85;29033;-56
2023/10/18 01:56:34;;;;;;;48.63;28.77;;;;;;;1.10;80.47;100492.62;1684205;85;27445;-56
2023/10/18 01:59:04;;;;;;;50.78;29.90;;;;;;;1.10;80.49;100489.17;1684207;85;25425;-58
2023/10/18 02:01:30;;;;;;;47.83;28.80;;;;;;;1.08;80.61;100489.41;1683733;85;25473;-56
2023/10/18 02:04:00;;;;;;;49.50;28.60;;;;;;;1.07;80.51;100487.81;1684128;85;25982;-56
2023/10/18 02:06:28;;;;;;;53.40;28.40;;;;;;;1.07;80.58;100484.31;1684402;85;25550;-57
2023/10/18 02:08:55;;;;;;;50.03;29.02;;;;;;;1.05;80.44;100488.55;1684160;85;27349;-58
2023/10/18 02:11:22;;;;;;;52.90;29.63;;;;;;;1.05;80.51;100483.75;1684063;84;25547;-58
2023/10/18 02:13:49;;;;;;;53.42;30.88;;;;;;;1.03;80.63;100484.52;1684153;85;25456;-58
2023/10/18 02:16:16;;;;;;;52.15;30.57;;;;;;;1.01;80.60;100486.09;1684105;85;26236;-55
2023/10/18 02:18:48;;;;;;;51.20;29.90;;;;;;;1.00;80.67;100485.80;1684176;85;25624;-59
2023/10/18 02:21:14;;;;;;;52.08;29.48;;;;;;;1.00;80.65;100485.80;1684027;85;27427;-55
2023/10/18 02:23:42;;;;;;;49.93;28.17;;;;;;;1.00;80.71;100487.66;1684058;85;25589;-59
2023/10/18 02:26:22;;;;;;;47.48;28.07;;;;;;;0.99;80.21;100492.70;1684136;85;25604;-58
2023/10/18 02:28:40;;;;;;;49.30;27.90;;;;;;;0.97;80.15;100489.47;1681689;85;34691;-59
2023/10/18 02:33:36;;;;;;;51.80;28.67;;;;;;;0.91;80.07;100484.59;1684138;85;27781;-57
2023/10/18 02:36:06;;;;;;;47.55;28.85;;;;;;;0.90;80.11;100485.63;1684107;85;25616;-55
2023/10/18 02:38:34;;;;;;;47.50;27.82;;;;;;;0.87;80.12;100478.94;1684163;85;25639;-56
2023/10/18 02:41:14;;;;;;;47.43;27.22;;;;;;;0.86;80.60;100483.96;1684074;85;25627;-55
2023/10/18 02:43:32;;;;;;;47.17;28.83;;;;;;;0.87;80.73;100487.42;1682176;85;25633;-54
2023/10/18 02:46:04;;;;;;;48.30;28.45;;;;;;;0.87;80.90;100482.09;1684128;85;28379;-55
2023/10/18 02:48:31;;;;;;;46.08;26.45;;;;;;;0.87;81.15;100476.77;1687506;83;25477;-53
2023/10/18 02:50:58;;;;;;;55.38;29.18;;;;;;;0.86;81.38;100477.30;1688955;85;25557;-56
2023/10/18 02:53:25;;;;;;;46.73;26.97;;;;;;;0.87;81.23;100472.78;1688806;85;25501;-55
2023/10/18 02:55:57;;;;;;;48.68;28.45;;;;;;;0.89;81.63;100480.03;1688855;85;25420;-56
2023/10/18 02:58:28;;;;;;;50.23;29.32;;;;;;;0.89;81.74;100477.37;1711003;83;27943;-55
2023/10/18 03:00:53;;;;;;;47.35;28.57;;;;;;;0.91;81.75;100469.94;1710756;83;25608;-55
2023/10/18 03:03:22;;;;;;;44.65;26.77;;;;;;;0.90;81.50;100466.47;1710963;83;25468;-54
2023/10/18 03:05:49;;;;;;;50.33;29.90;;;;;;;0.92;81.96;100466.23;1688810;85;25605;-58
2023/10/18 03:08:20;;;;;;;49.85;28.02;;;;;;;0.90;82.06;100465.14;1711148;83;25455;-59
2023/10/18 03:10:47;;;;;;;52.23;28.57;;;;;;;0.91;81.78;100464.61;1688811;83;27355;-59
2023/10/18 03:13:17;;;;;;;44.25;26.77;;;;;;;0.89;81.63;100457.39;1711126;83;25739;-57
2023/10/18 03:16:03;;;;;;;47.75;28.50;;;;;;;0.86;81.70;100453.87;1711196;83;25410;-58
2023/10/18 03:18:24;;;;;;;49.25;28.10;;;;;;;0.86;81.79;100453.34;1709502;83;25631;-58
2023/10/18 03:20:55;;;;;;;44.73;27.32;;;;;;;0.86;81.83;100456.00;1711110;83;33170;-55
2023/10/18 03:23:26;;;;;;;52.17;28.65;;;;;;;0.86;81.93;100456.53;1711003;83;28220;-54
2023/10/18 03:26:03;;;;;;;44.98;26.85;;;;;;;0.86;82.03;100455.20;1710884;83;25469;-54
2023/10/18 03:28:36;;;;;;;46.50;27.17;;;;;;;0.87;82.35;100447.48;1710767;83;25602;-55
2023/10/18 03:34:09;;;;;;;52.73;28.35;;;;;;;0.86;82.42;100443.22;1711015;83;25627;-54
2023/10/18 03:36:48;;;;;;;47.65;28.07;;;;;;;0.84;82.62;100444.78;1710219;83;27394;-55
2023/10/18 03:39:13;;;;;;;51.23;27.60;;;;;;;0.82;82.27;100437.56;1678711;85;25430;-55
2023/10/18 03:41:42;;;;;;;48.90;27.35;;;;;;;0.82;82.66;100432.74;1710953;83;25382;-56
2023/10/18 03:44:13;;;;;;;50.03;27.15;;;;;;;0.83;82.53;100430.37;1710893;83;26178;-54
2023/10/18 03:46:51;;;;;;;46.68;26.90;;;;;;;0.81;82.58;100422.63;1710948;83;25458;-54
2023/10/18 03:52:02;;;;;;;47.88;27.80;;;;;;;0.80;82.78;100422.86;1710881;83;25587;-54
2023/10/18 03:54:28;;;;;;;49.73;28.67;;;;;;;0.81;83.16;100420.49;1680439;85;25577;-55
2023/10/18 03:56:55;;;;;;;43.48;27.22;;;;;;;0.81;83.07;100419.96;1710883;83;25635;-54
2023/10/18 03:59:24;;;;;;;50.08;29.15;;;;;;;0.82;82.99;100414.93;1710962;83;25633;-59
2023/10/18 04:02:05;;;;;;;49.18;29.00;;;;;;;0.84;83.00;100413.36;1711126;83;28260;-57
2023/10/18 04:04:44;;;;;;;49.30;28.05;;;;;;;0.85;82.92;100418.95;1710882;83;25576;-58
2023/10/18 04:07:12;;;;;;;46.65;27.93;;;;;;;0.85;82.88;100420.28;1709371;83;25647;-58
2023/10/18 04:09:53;;;;;;;51.37;27.25;;;;;;;0.85;82.87;100414.95;1710948;83;25956;-57
2023/10/18 04:12:22;;;;;;;46.40;26.33;;;;;;;0.84;82.84;100413.36;1710980;83;25423;-59
2023/10/18 04:15:12;;;;;;;43.75;26.95;;;;;;;0.85;83.16;100422.45;1710922;83;27235;-57
2023/10/18 04:20:15;;;;;;;44.65;27.73;;;;;;;0.85;82.89;100413.63;1710960;83;25592;-58
2023/10/18 04:22:36;;;;;;;50.80;27.87;;;;;;;0.84;82.94;100412.83;1709141;83;26239;-58
2023/10/18 04:25:25;;;;;;;45.08;27.22;;;;;;;0.84;82.98;100417.36;1681143;85;25379;-59
2023/10/18 04:27:45;;;;;;;47.25;27.07;;;;;;;0.83;82.92;100417.06;1709750;83;28017;-58
2023/10/18 04:30:16;;;;;;;48.25;27.45;;;;;;;0.81;82.79;100417.83;1710939;83;25973;-59
2023/10/18 04:32:43;;;;;;;45.85;27.17;;;;;;;0.81;82.87;100423.95;1710706;83;25567;-59
2023/10/18 04:35:10;;;;;;;47.67;28.23;;;;;;;0.80;82.79;100418.87;1710931;83;25503;-58
2023/10/18 04:37:38;;;;;;;47.95;28.30;;;;;;;0.78;83.12;100419.11;1710959;83;25631;-58
2023/10/18 04:40:16;;;;;;;43.33;27.00;;;;;;;0.76;82.75;100407.89;1710924;83;27189;-58
2023/10/18 04:42:37;;;;;;;49.35;27.82;;;;;;;0.75;82.97;100411.62;1679559;83;25556;-58
2023/10/18 04:45:16;;;;;;;47.62;27.70;;;;;;;0.75;83.09;100414.28;1710822;83;25618;-58
2023/10/18 04:47:34;;;;;;;47.45;27.30;;;;;;;0.75;83.05;100415.62;1679634;84;25580;-58
2023/10/18 04:50:02;;;;;;;50.88;28.07;;;;;;;0.76;83.05;100415.08;1716000;83;25567;-56
2023/10/18 04:52:40;;;;;;;46.98;29.00;;;;;;;0.73;83.02;100413.19;1715961;83;26992;-55
2023/10/18 04:55:00;;;;;;;52.30;29.02;;;;;;;0.72;82.96;100411.56;1681586;85;25490;-59
2023/10/18 04:57:28;;;;;;;49.15;27.17;;;;;;;0.69;82.88;100409.91;1715991;83;25156;-60
2023/10/18 04:59:59;;;;;;;46.53;27.50;;;;;;;0.69;82.94;100405.38;1715860;83;25954;-59
2023/10/18 05:02:26;;;;;;;45.38;26.95;;;;;;;0.68;83.01;100413.11;1682719;85;25423;-56
2023/10/18 05:04:55;;;;;;;45.28;27.75;;;;;;;0.67;83.37;100410.14;1715937;83;27343;-56
2023/10/18 05:07:38;;;;;;;48.92;27.98;;;;;;;0.65;83.23;100409.59;1715852;83;25544;-56
2023/10/18 05:09:56;;;;;;;42.25;27.10;;;;;;;0.64;83.10;100408.49;1694795;84;25570;-56
2023/10/18 05:14:50;;;;;;;47.98;27.10;;;;;;;0.60;83.31;100406.84;1697193;84;25722;-55
2023/10/18 05:17:17;;;;;;;44.93;26.00;;;;;;;0.60;83.42;100417.48;1715002;83;27696;-57
2023/10/18 05:19:45;;;;;;;46.28;26.25;;;;;;;0.59;83.40;100411.06;1715117;83;25656;-53
2023/10/18 05:22:25;;;;;;;45.30;26.25;;;;;;;0.58;83.51;100410.77;1715141;83;25742;-54
2023/10/18 05:27:28;;;;;;;53.75;29.32;;;;;;;0.55;83.56;100416.86;1674546;85;25856;-59
2023/10/18 05:29:59;;;;;;;47.80;28.35;;;;;;;0.52;83.59;100409.87;1675436;85;27688;-58
2023/10/18 05:35:20;;;;;;;50.15;27.62;;;;;;;0.55;83.76;100414.20;1675399;85;25688;-58
2023/10/18 05:37:33;;;;;;;45.92;28.23;;;;;;;0.56;83.81;100415.00;1672715;85;26216;-59
2023/10/18 05:42:46;;;;;;;59.55;29.23;;;;;;;0.58;83.91;100418.75;1675408;85;27339;-55
2023/10/18 05:45:14;;;;;;;50.80;29.30;;;;;;;0.55;83.98;100416.86;1675249;85;25582;-59
2023/10/18 05:47:43;;;;;;;52.13;29.10;;;;;;;0.59;84.05;100426.50;1674827;85;25666;-58
2023/10/18 05:50:14;;;;;;;50.03;29.20;;;;;;;0.61;84.10;100422.27;1666235;86;25816;-56
2023/10/18 05:52:48;;;;;;;50.58;27.87;;;;;;;0.63;84.24;100425.50;1666172;86;25469;-57
2023/10/18 05:55:10;;;;;;;47.90;28.60;;;;;;;0.63;84.37;100426.33;1665056;86;27415;-57
2023/10/18 05:57:37;;;;;;;49.58;28.07;;;;;;;0.65;84.62;100418.91;1666004;86;25686;-58
2023/10/18 06:00:19;;;;;;;53.90;28.02;;;;;;;0.70;84.73;100423.52;1666106;86;25702;-59
2023/10/18 06:02:46;;;;;;;47.98;27.67;;;;;;;0.73;84.87;100420.34;1666090;86;25761;-59
2023/10/18 06:05:13;;;;;;;46.60;28.62;;;;;;;0.76;85.03;100415.08;1696952;83;25615;-59
2023/10/18 06:07:41;;;;;;;55.05;29.40;;;;;;;0.81;85.16;100416.50;1688362;85;27067;-60
2023/10/18 06:10:17;;;;;;;51.08;29.40;;;;;;;0.86;85.29;100405.40;1716419;83;25459;-59
2023/10/18 06:12:46;;;;;;;47.83;28.20;;;;;;;0.88;85.38;100412.62;1714949;83;25509;-58
2023/10/18 06:15:13;;;;;;;51.15;28.50;;;;;;;0.94;85.53;100408.20;1715471;83;25991;-62
2023/10/18 06:17:47;;;;;;;49.15;29.18;;;;;;;1.00;85.59;100407.22;1688365;85;25495;-60
2023/10/18 06:20:37;;;;;;;52.25;28.17;;;;;;;1.07;85.91;100409.22;1716389;83;27348;-57
2023/10/18 06:22:47;;;;;;;53.98;28.73;;;;;;;1.15;86.31;100420.51;1706847;83;25398;-57
2023/10/18 06:25:25;;;;;;;54.27;29.72;;;;;;;1.26;86.50;100418.27;1716193;83;25477;-59
2023/10/18 06:27:42;;;;;;;52.58;28.90;;;;;;;1.35;86.68;100411.48;1713736;83;25604;-57
2023/10/18 06:30:17;;;;;;;54.90;29.82;;;;;;;1.51;87.27;100409.03;1688345;85;25395;-58
2023/10/18 06:32:46;;;;;;;51.53;30.95;;;;;;;1.68;88.60;100410.59;1716412;83;27305;-57
2023/10/18 06:35:17;;;;;;;57.17;29.98;;;;;;;1.98;89.85;100408.05;1688394;85;25672;-60
2023/10/18 06:37:44;;;;;;;49.10;30.10;;;;;;;2.26;90.56;100401.41;1716409;83;25593;-58
2023/10/18 06:43:00;;;;;;;53.05;31.65;;;;;;;2.81;91.17;100405.70;1716434;83;25458;-58
2023/10/18 06:45:27;;;;;;;55.90;32.45;;;;;;;3.21;92.12;100403.59;1716378;83;27333;-58
2023/10/18 06:47:55;;;;;;;56.75;32.63;;;;;;;3.45;92.51;100402.13;1687998;85;25490;-59
2023/10/18 06:50:26;;;;;;;54.10;33.05;;;;;;;3.82;92.88;100397.23;1713519;83;25390;-59
2023/10/18 06:52:55;;;;;;;64.90;33.05;;;;;;;4.10;92.33;100391.17;1649981;86;25789;-59
2023/10/18 06:55:35;;;;;;;50.15;30.43;;;;;;;4.39;91.64;100390.20;1712677;83;25584;-57
2023/10/18 06:57:50;;;;;;;53.45;31.33;;;;;;;4.71;91.30;100385.67;1710028;83;27197;-59
2023/10/18 07:00:19;;;;;;;45.20;29.05;;;;;;;4.91;89.46;100389.70;1712929;83;25622;-57
2023/10/18 07:02:45;;;;;;;47.17;28.40;;;;;;;5.20;88.90;100386.47;1712894;83;25722;-59
2023/10/18 07:05:12;;;;;;;46.15;27.42;;;;;;;5.45;88.68;100393.66;1712889;83;25683;-60
2023/10/18 07:07:38;;;;;;;44.15;27.20;;;;;;;5.79;88.84;100383.63;1712903;83;25769;-60
2023/10/18 07:10:19;;;;;;;44.23;26.42;;;;;;;6.14;87.86;100381.88;1713063;83;27332;-58
2023/10/18 07:12:51;;;;;;;43.28;26.02;;;;;;;6.44;87.14;100384.93;1649148;86;25598;-58
2023/10/18 07:15:16;;;;;;;43.92;26.00;;;;;;;6.82;86.52;100385.73;1712840;83;25603;-58
2023/10/18 07:17:48;;;;;;;39.27;24.93;;;;;;;7.18;84.35;100390.25;1713777;83;25655;-59
2023/10/18 07:20:20;;;;;;;41.23;23.83;;;;;;;7.43;83.81;100384.38;1713596;83;25579;-58
2023/10/18 07:22:47;;;;;;;35.17;22.62;;;;;;;7.80;81.29;100384.23;1649910;86;27679;-57
2023/10/18 07:25:27;;;;;;;39.33;23.55;;;;;;;8.01;80.12;100376.69;1713204;83;25430;-58
2023/10/18 07:27:45;;;;;;;36.75;21.97;;;;;;;8.15;79.22;100378.91;1709889;83;25446;-58
2023/10/18 07:30:14;;;;;;;34.50;22.77;;;;;;;8.49;79.97;100375.23;1713444;83;26301;-58
2023/10/18 07:32:47;;;;;;;41.92;22.65;;;;;;;8.88;79.00;100374.08;1713667;83;25662;-56
2023/10/18 07:35:12;;;;;;;35.35;21.48;;;;;;;9.13;77.23;100381.50;1683583;85;27343;-59
2023/10/18 07:37:43;;;;;;;32.53;22.02;;;;;;;9.28;75.78;100372.31;1684016;85;25628;-57
2023/10/18 07:40:19;;;;;;;32.55;21.57;;;;;;;9.45;75.08;100361.75;1684133;85;25567;-59
2023/10/18 07:42:43;;;;;;;31.97;20.77;;;;;;;9.78;75.79;100368.39;1683067;85;26322;-58
2023/10/18 07:45:14;;;;;;;32.03;21.20;;;;;;;10.10;74.75;100358.54;1684273;85;25478;-58
2023/10/18 07:47:39;;;;;;;37.98;22.58;;;;;;;10.44;74.58;100363.47;1683900;85;27204;-59
2023/10/18 07:52:39;;;;;;;31.60;21.40;;;;;;;11.37;73.37;100359.80;1601083;89;25546;-58
2023/10/18 07:55:08;;;;;;;27.65;18.35;;;;;;;11.91;72.98;100361.04;1600956;89;25637;-58
2023/10/18 07:57:46;;;;;;;;;;;;;;;12.43;70.78;100365.70;1603430;89;25684;-58
2023/10/18 08:02:43;;;;;;;25.12;16.32;;;;;;;12.89;68.10;100354.74;1550328;92;25697;-57
2023/10/18 08:05:10;;;;;;;22.00;14.70;;;;;;;13.34;66.35;100353.51;1550393;92;25654;-57
2023/10/18 08:07:39;;;;;;;23.98;14.70;;;;;;;13.57;66.17;100351.31;1550352;92;25648;-57
2023/10/18 08:10:08;;;;;;;25.27;14.03;;;;;;;14.03;64.78;100348.27;1550425;92;25728;-58
2023/10/18 08:12:34;;;;;;;18.32;13.25;;;;;;;14.41;63.26;100360.92;1550528;92;27362;-55
2023/10/18 08:15:13;;;;;;;19.75;13.55;;;;;;;14.53;62.05;100349.30;1550389;92;25838;-60
2023/10/18 08:17:44;;;;;;;22.70;13.30;;;;;;;14.77;60.86;100353.28;1548906;92;25661;-58
2023/10/18 08:22:50;;;;;;;17.37;12.03;;;;;;;15.48;58.34;100344.77;1550442;92;25301;-59
2023/10/18 08:25:31;;;;;;;;;;;;;;;15.65;58.02;100341.59;1552889;92;27378;-59
2023/10/18 08:28:02;;;;;;;15.88;9.60;;;;;;;16.04;56.75;100350.20;1549474;92;25560;-58
2023/10/18 08:31:02;;;;;;;14.33;9.05;;;;;;;16.40;54.21;100352.59;1539480;92;25710;-59
2023/10/18 08:33:07;;;;;;;10.55;7.05;;;;;;;16.41;53.55;100361.81;1562326;91;25703;-55
2023/10/18 08:35:36;;;;;;;11.35;7.30;;;;;;;16.57;53.29;100351.52;1565949;91;25755;-60
2023/10/18 08:38:05;;;;;;;13.72;5.85;;;;;;;16.96;53.78;100346.34;1571037;91;27340;-60
2023/10/18 08:43:29;;;;;;;7.20;4.25;;;;;;;17.53;50.22;100345.00;1678765;85;25481;-58
2023/10/18 08:45:57;;;;;;;6.95;4.42;;;;;;;17.65;48.54;100343.31;1679105;85;25656;-60
2023/10/18 08:48:38;;;;;;;8.00;5.08;;;;;;;17.77;48.48;100342.41;1713754;83;25410;-59
2023/10/18 08:50:59;;;;;;;9.23;4.95;;;;;;;17.85;47.37;100340.05;1712881;83;27364;-59
2023/10/18 08:53:31;;;;;;;7.45;3.92;;;;;;;17.87;46.58;100337.78;1713533;83;25560;-59
2023/10/18 08:55:58;;;;;;;6.30;4.47;;;;;;;17.87;46.89;100337.20;1713381;83;25580;-60
2023/10/18 08:58:28;;;;;;;6.33;3.80;;;;;;;18.13;45.59;100344.00;1713656;83;25600;-59
2023/10/18 09:01:03;;;;;;;6.85;4.40;;;;;;;18.05;45.28;100335.45;1713694;83;25450;-59
2023/10/18 09:03:24;;;;;;;;;;;;;;;18.41;45.54;100323.85;1714944;83;27936;-59
2023/10/18 09:08:26;;;;;;;9.13;3.60;;;;;;;18.76;44.00;100320.19;1669304;85;25740;-60
2023/10/18 09:10:55;;;;;;;5.83;3.75;;;;;;;18.81;42.99;100335.77;1669294;86;26215;-60
2023/10/18 09:16:02;;;;;;;7.05;3.80;;;;;;;19.07;42.92;100332.92;1669361;86;27764;-60
2023/10/18 09:18:31;;;;;;;5.70;3.42;;;;;;;19.38;42.66;100327.73;1669239;86;25594;-60
2023/10/18 09:21:17;;;;;;;6.55;3.67;;;;;;;19.44;40.90;100326.84;1669365;86;25601;-59
2023/10/18 09:23:40;;;;;;;4.47;3.10;;;;;;;19.31;40.53;100319.41;1647360;86;25884;-59
2023/10/18 09:26:18;;;;;;;;;;;;;;;19.44;41.17;100324.09;1671820;86;25459;-59
2023/10/18 09:28:43;;;;;;;5.50;2.98;;;;;;;19.56;40.03;100317.05;1668552;86;27227;-59
2023/10/18 09:31:18;;;;;;;9.28;3.65;;;;;;;19.80;40.78;100315.63;1669303;86;25480;-60
2023/10/18 09:33:52;;;;;;;7.78;3.27;;;;;;;20.29;41.03;100320.95;1669394;86;25565;-60
2023/10/18 09:36:23;;;;;;;4.85;3.12;;;;;;;20.96;40.18;100321.29;1669338;86;25624;-61
2023/10/18 09:38:55;;;;;;;6.78;3.77;;;;;;;21.39;40.10;100319.69;1669388;86;25474;-59
2023/10/18 09:41:27;;;;;;;6.87;3.42;;;;;;;21.57;38.35;100315.73;1669352;86;27353;-59
2023/10/18 09:43:52;;;;;;;4.70;3.27;;;;;;;21.78;38.92;100318.41;1668918;86;25517;-58
2023/10/18 09:46:19;;;;;;;8.25;3.45;;;;;;;21.81;36.96;100316.23;1699684;83;25390;-59
2023/10/18 09:48:47;;;;;;;4.65;3.40;;;;;;;21.87;37.38;100316.08;1713452;83;26173;-59
2023/10/18 09:51:21;;;;;;;5.33;3.60;;;;;;;22.18;37.43;100308.34;1683707;85;25651;-58
2023/10/18 09:53:56;;;;;;;4.65;3.70;;;;;;;22.61;36.93;100307.72;1706259;84;27522;-58
2023/10/18 09:56:27;;;;;;;6.28;3.50;;;;;;;23.06;36.71;100302.08;1683640;85;25621;-60
2023/10/18 09:59:08;;;;;;;6.47;3.87;;;;;;;23.39;35.24;100296.55;1706467;84;25655;-59
2023/10/18 10:04:13;;;;;;;5.33;3.05;;;;;;;23.60;34.00;100304.80;1698165;84;25474;-59
2023/10/18 10:06:45;;;;;;;4.97;3.33;;;;;;;24.27;34.64;100303.59;1698134;84;27391;-61
2023/10/18 10:09:13;;;;;;;4.58;3.50;;;;;;;24.92;33.25;100305.98;1697722;84;25747;-59
2023/10/18 10:11:47;;;;;;;4.70;3.90;;;;;;;24.78;31.98;100302.13;1698128;84;25408;-59
2023/10/18 10:14:18;;;;;;;6.90;3.47;;;;;;;24.50;31.01;100298.14;1698082;84;26636;-59
2023/10/18 10:16:52;;;;;;;6.33;3.50;;;;;;;24.13;32.21;100293.41;1698175;84;25647;-59
2023/10/18 10:19:28;;;;;;;6.30;3.72;;;;;;;24.39;31.58;100302.35;1690515;84;27276;-58
2023/10/18 10:22:07;;;;;;;6.83;3.70;;;;;;;24.11;31.28;100296.36;1697999;84;25464;-59
2023/10/18 10:24:42;;;;;;;5.80;3.45;;;;;;;23.55;31.33;100298.88;1677323;84;25771;-59
2023/10/18 10:27:27;;;;;;;4.97;3.98;;;;;;;23.28;32.13;100295.97;1696108;84;26390;-58
2023/10/18 10:30:31;;;;;;;5.28;3.33;;;;;;;23.00;31.70;100286.30;1698148;84;25660;-58
2023/10/18 10:32:37;;;;;;;7.05;3.47;;;;;;;22.91;32.62;100288.84;1693475;84;27482;-60
2023/10/18 10:35:24;;;;;;;7.25;3.40;;;;;;;23.26;32.98;100282.39;1697985;84;25404;-58
2023/10/18 10:38:21;;;;;;;5.10;3.37;;;;;;;23.68;32.15;100276.56;1697629;84;25691;-59
2023/10/18 10:40:50;;;;;;;5.20;3.20;;;;;;;23.42;32.27;100273.67;1698025;84;26871;-59
2023/10/18 10:43:20;;;;;;;6.50;3.50;;;;;;;23.07;30.84;100284.36;1698065;84;25651;-59
2023/10/18 10:48:30;;;;;;;6.10;3.17;;;;;;;22.29;30.92;100274.00;1698106;84;25654;-59
2023/10/18 10:51:16;;;;;;;3.70;3.05;;;;;;;21.79;30.58;100278.11;1697987;84;25881;-59
2023/10/18 10:54:01;;;;;;;6.35;3.45;;;;;;;21.47;32.46;100258.66;1697790;84;25954;-59
2023/10/18 10:56:34;;;;;;;6.20;3.47;;;;;;;21.88;33.22;100270.05;1698198;84;25495;-58
2023/10/18 11:04:49;;;;;;;4.83;3.60;;;;;;;21.87;31.56;100265.74;1698117;84;25617;-59
2023/10/18 11:07:24;;;;;;;6.67;3.45;;;;;;;20.98;31.56;100253.77;1697956;84;25656;-59
2023/10/18 11:09:59;;;;;;;7.30;3.15;;;;;;;20.52;32.48;100257.66;1698086;84;25479;-60
2023/10/18 11:12:27;;;;;;;4.50;2.95;;;;;;;20.00;32.49;100251.19;1697556;84;28190;-58
2023/10/18 11:14:55;;;;;;;5.28;3.50;;;;;;;19.39;33.50;100244.31;1698051;84;25541;-59
2023/10/18 11:17:25;;;;;;;6.40;3.17;;;;;;;19.05;34.24;100242.02;1698061;84;25416;-59
2023/10/18 11:19:59;;;;;;;4.55;2.80;;;;;;;18.55;34.49;100239.21;1698035;84;25987;-60
2023/10/18 11:22:33;;;;;;;4.72;2.80;;;;;;;18.24;34.89;100241.59;1698079;84;25549;-61
2023/10/18 11:25:03;;;;;;;4.92;3.35;;;;;;;17.93;35.75;100237.86;1698119;84;28137;-61
2023/10/18 11:27:34;;;;;;;5.08;2.58;;;;;;;18.35;36.41;100239.82;1698008;84;25766;-63
2023/10/18 11:32:39;;;;;;;7.50;3.00;;;;;;;18.53;36.56;100226.47;1698088;84;26281;-63
2023/10/18 11:35:16;;;;;;;8.10;5.85;;;;;;;19.14;36.45;100233.56;1698209;84;31194;-63
2023/10/18 11:37:44;;;;;;;12.63;5.40;;;;;;;19.36;36.91;100212.14;1696869;84;27472;-63
2023/10/18 11:40:29;;;;;;;5.15;2.75;;;;;;;19.90;36.60;100217.55;1697903;84;25584;-63
2023/10/18 11:43:06;;;;;;;5.15;2.67;;;;;;;20.42;34.92;100235.58;1697141;84;25552;-63
2023/10/18 11:45:38;;;;;;;4.08;2.95;;;;;;;20.45;34.84;100221.06;1698054;84;25569;-64
2023/10/18 11:48:09;;;;;;;5.45;3.15;;;;;;;20.40;34.16;100220.03;1698112;84;25648;-63
2023/10/18 11:50:47;;;;;;;10.80;4.12;;;;;;;20.04;33.95;100215.55;1693101;84;27320;-63
2023/10/18 11:53:22;;;;;;;8.13;4.10;;;;;;;19.78;34.71;100223.50;1735805;82;25595;-64
2023/10/18 11:55:58;;;;;;;6.28;4.15;;;;;;;19.86;34.92;100226.33;1718112;83;25619;-61
2023/10/18 11:58:29;;;;;;;9.10;4.97;;;;;;;19.79;34.91;100220.17;1717579;83;26398;-61
2023/10/18 12:01:05;;;;;;;8.53;3.87;;;;;;;19.66;34.61;100217.42;1718252;83;25577;-61
2023/10/18 12:03:33;;;;;;;7.90;3.72;;;;;;;19.50;34.98;100218.39;1717948;82;28359;-59
2023/10/18 12:06:02;;;;;;;6.87;3.80;;;;;;;19.39;34.80;100216.89;1718087;82;25445;-60
2023/10/18 12:08:47;;;;;;;6.12;3.37;;;;;;;19.18;34.82;100214.61;1718172;83;25544;-59
2023/10/18 12:11:11;;;;;;;5.58;3.20;;;;;;;18.85;34.42;100206.48;1717560;82;25988;-60
2023/10/18 12:13:38;;;;;;;9.00;3.55;;;;;;;18.37;34.44;100203.31;1718133;83;25483;-61
2023/10/18 12:16:08;;;;;;;5.03;3.00;;;;;;;18.07;35.24;100201.77;1718148;83;27435;-59
2023/10/18 12:18:34;;;;;;;4.20;2.77;;;;;;;18.18;35.66;100193.16;1717720;83;25636;-61
2023/10/18 12:21:05;;;;;;;7.03;3.20;;;;;;;18.37;35.63;100187.44;1718251;83;25616;-59
2023/10/18 12:23:31;;;;;;;;;;;;;;;18.70;36.23;100177.84;1720590;83;25598;-59
2023/10/18 12:26:05;;;;;;;6.15;3.22;;;;;;;18.91;35.43;100182.88;1689336;85;25432;-58
2023/10/18 12:28:28;;;;;;;5.75;3.08;;;;;;;18.97;35.01;100179.46;1732759;82;28009;-58
2023/10/18 12:31:00;;;;;;;5.75;3.17;;;;;;;19.07;35.19;100179.98;1733559;82;26011;-57